createdAt,value
2023-05-03T00:01:58.661Z,6.65
2023-05-03T00:04:28.798Z,6.63
2023-05-03T00:06:57.297Z,6.55
2023-05-03T00:09:26.026Z,6.52
2023-05-03T00:11:54.663Z,6.63
2023-05-03T00:14:23.093Z,6.46
2023-05-03T00:16:51.579Z,6.59
2023-05-03T00:19:28.373Z,6.53
2023-05-03T00:22:00.890Z,6.53
2023-05-03T00:24:29.046Z,6.50
2023-05-03T00:26:57.408Z,6.41
2023-05-03T00:29:26.149Z,6.50
2023-05-03T00:31:54.536Z,6.67
2023-05-03T00:34:22.718Z,6.56
2023-05-03T00:36:53.197Z,6.40
2023-05-03T00:39:22.824Z,6.37
2023-05-03T00:41:50.995Z,6.29
2023-05-03T00:44:19.356Z,6.24
2023-05-03T00:46:47.584Z,6.27
2023-05-03T00:49:15.876Z,6.17
2023-05-03T00:51:45.829Z,6.21
2023-05-03T00:54:14.204Z,6.25
2023-05-03T00:56:51.616Z,6.23
2023-05-03T00:59:21.409Z,6.13
2023-05-03T01:01:52.587Z,6.13
2023-05-03T01:04:21.837Z,6.11
2023-05-03T01:07:00.767Z,6.19
2023-05-03T01:09:34.891Z,5.99
2023-05-03T01:12:16.235Z,5.91
2023-05-03T01:14:53.463Z,6.02
2023-05-03T01:17:28.573Z,5.79
2023-05-03T01:20:00.835Z,5.70
2023-05-03T01:22:39.188Z,5.59
2023-05-03T01:25:10.921Z,5.61
2023-05-03T01:27:40.365Z,5.60
2023-05-03T01:30:10.982Z,5.40
2023-05-03T01:32:50.775Z,5.43
2023-05-03T01:35:27.514Z,5.40
2023-05-03T01:37:58.477Z,5.33
2023-05-03T01:40:29.779Z,5.42
2023-05-03T01:42:58.547Z,5.35
2023-05-03T01:45:27.628Z,5.29
2023-05-03T01:47:57.822Z,5.28
2023-05-03T01:50:26.176Z,5.23
2023-05-03T01:52:54.641Z,5.16
2023-05-03T01:55:23.051Z,5.29
2023-05-03T01:57:53.268Z,5.32
2023-05-03T02:00:21.866Z,5.27
2023-05-03T02:02:51.866Z,5.12
2023-05-03T02:05:20.135Z,5.14
2023-05-03T02:07:48.537Z,5.12
2023-05-03T02:10:16.945Z,4.96
2023-05-03T02:12:45.719Z,5.10
2023-05-03T02:15:15.444Z,5.06
2023-05-03T02:17:45.711Z,5.29
2023-05-03T02:20:14.590Z,5.21
2023-05-03T02:22:42.989Z,5.24
2023-05-03T02:25:11.616Z,5.31
2023-05-03T02:27:40.013Z,5.17
2023-05-03T02:30:09.835Z,5.15
2023-05-03T02:32:39.560Z,5.31
2023-05-03T02:35:08.735Z,5.27
2023-05-03T02:37:37.062Z,5.35
2023-05-03T02:40:06.738Z,5.43
2023-05-03T02:42:34.921Z,5.29
2023-05-03T02:45:03.477Z,5.44
2023-05-03T02:47:31.764Z,5.38
2023-05-03T02:50:01.794Z,5.49
2023-05-03T02:52:30.555Z,5.45
2023-05-03T02:54:58.905Z,5.45
2023-05-03T02:57:27.361Z,5.41
2023-05-03T02:59:57.422Z,5.42
2023-05-03T03:02:26.472Z,5.40
2023-05-03T03:04:55.273Z,5.40
2023-05-03T03:07:25.197Z,5.37
2023-05-03T03:09:53.368Z,5.35
2023-05-03T03:12:21.495Z,5.36
2023-05-03T03:14:49.596Z,5.25
2023-05-03T03:17:18.079Z,5.29
2023-05-03T03:19:46.256Z,5.26
2023-05-03T03:22:14.341Z,5.30
2023-05-03T03:24:45.273Z,5.34
2023-05-03T03:27:13.943Z,5.22
2023-05-03T03:29:42.303Z,5.11
2023-05-03T03:32:10.864Z,5.17
2023-05-03T03:34:38.947Z,5.07
2023-05-03T03:37:07.460Z,4.90
2023-05-03T03:39:35.907Z,4.90
2023-05-03T03:42:05.742Z,4.74
2023-05-03T03:44:34.042Z,4.70
2023-05-03T03:47:05.493Z,4.71
2023-05-03T03:49:33.784Z,4.73
2023-05-03T03:52:02.240Z,4.57
2023-05-03T03:54:30.486Z,4.62
2023-05-03T03:56:58.704Z,4.62
2023-05-03T03:59:28.505Z,4.53
2023-05-03T04:01:57.979Z,4.52
2023-05-03T04:04:26.829Z,4.59
2023-05-03T04:06:55.267Z,4.71
2023-05-03T04:09:23.767Z,4.70
2023-05-03T04:11:52.037Z,4.73
2023-05-03T04:14:20.293Z,4.72
2023-05-03T04:16:50.588Z,4.79
2023-05-03T04:19:19.322Z,4.71
2023-05-03T04:21:47.785Z,4.68
2023-05-03T04:24:17.640Z,4.73
2023-05-03T04:26:45.933Z,4.62
2023-05-03T04:29:14.680Z,4.54
2023-05-03T04:31:43.217Z,4.68
2023-05-03T04:34:15.102Z,4.60
2023-05-03T04:36:46.066Z,4.57
2023-05-03T04:39:14.334Z,4.59
2023-05-03T04:41:42.890Z,4.67
2023-05-03T04:44:11.282Z,4.55
2023-05-03T04:46:39.952Z,4.68
2023-05-03T04:49:08.111Z,4.80
2023-05-03T04:51:37.801Z,4.82
2023-05-03T04:54:06.370Z,4.96
2023-05-03T04:56:35.960Z,4.99
2023-05-03T04:59:04.577Z,5.14
2023-05-03T05:01:33.066Z,5.13
2023-05-03T05:04:01.329Z,5.06
2023-05-03T05:06:29.637Z,5.18
2023-05-03T05:08:59.640Z,5.26
2023-05-03T05:11:27.943Z,5.24
2023-05-03T05:13:56.738Z,5.42
2023-05-03T05:16:25.079Z,5.61
2023-05-03T05:18:54.466Z,5.60
2023-05-03T05:21:22.749Z,5.65
2023-05-03T05:23:50.785Z,5.53
2023-05-03T05:26:20.846Z,5.67
2023-05-03T05:28:49.031Z,5.79
2023-05-03T05:31:17.079Z,5.81
2023-05-03T05:33:45.435Z,6.05
2023-05-03T05:36:13.750Z,6.11
2023-05-03T05:38:42.466Z,6.02
2023-05-03T05:41:10.740Z,6.15
2023-05-03T05:43:40.250Z,6.19
2023-05-03T05:46:08.866Z,6.35
2023-05-03T05:48:36.921Z,6.43
2023-05-03T05:51:05.544Z,6.58
2023-05-03T05:53:34.857Z,6.60
2023-05-03T05:56:03.054Z,6.65
2023-05-03T05:58:31.561Z,6.74
2023-05-03T06:01:03.906Z,6.72
2023-05-03T06:03:32.420Z,6.84
2023-05-03T06:06:01.410Z,6.90
2023-05-03T06:08:29.839Z,6.99
2023-05-03T06:10:58.095Z,7.10
2023-05-03T06:13:26.541Z,7.18
2023-05-03T06:15:55.140Z,7.28
2023-05-03T06:18:24.982Z,7.46
2023-05-03T06:20:53.410Z,7.52
2023-05-03T06:23:22.402Z,7.48
2023-05-03T06:25:50.504Z,7.57
2023-05-03T06:28:18.585Z,7.81
2023-05-03T06:30:51.939Z,7.78
2023-05-03T06:33:20.080Z,7.86
2023-05-03T06:35:49.632Z,8.04
2023-05-03T06:38:18.027Z,8.06
2023-05-03T06:40:46.494Z,7.96
2023-05-03T06:43:14.847Z,8.09
2023-05-03T06:45:44.855Z,8.10
2023-05-03T06:48:13.442Z,8.15
2023-05-03T06:50:41.940Z,8.24
2023-05-03T06:53:11.646Z,8.22
2023-05-03T06:55:40.237Z,8.41
2023-05-03T06:58:11.922Z,8.41
2023-05-03T07:00:41.289Z,8.53
2023-05-03T07:03:09.566Z,8.54
2023-05-03T07:05:38.654Z,8.62
2023-05-03T07:08:07.087Z,8.66
2023-05-03T07:10:37.603Z,8.70
2023-05-03T07:13:06.102Z,8.76
2023-05-03T07:15:34.334Z,8.87
2023-05-03T07:18:02.896Z,8.82
2023-05-03T07:20:31.219Z,9.04
2023-05-03T07:22:59.694Z,9.11
2023-05-03T07:25:28.081Z,9.24
2023-05-03T07:27:58.228Z,9.39
2023-05-03T07:30:27.126Z,9.44
2023-05-03T07:32:55.623Z,9.53
2023-05-03T07:35:25.111Z,9.48
2023-05-03T07:37:53.258Z,9.54
2023-05-03T07:40:21.630Z,9.57
2023-05-03T07:42:50.055Z,9.75
2023-05-03T07:45:21.170Z,9.94
2023-05-03T07:47:49.618Z,10.18
2023-05-03T07:50:18.013Z,10.22
2023-05-03T07:52:46.370Z,10.30
2023-05-03T07:55:14.603Z,10.31
2023-05-03T07:57:43.167Z,10.44
2023-05-03T08:00:12.752Z,10.39
2023-05-03T08:02:42.944Z,10.52
2023-05-03T08:05:15.066Z,10.81
2023-05-03T08:07:44.608Z,10.94
2023-05-03T08:10:15.613Z,11.07
2023-05-03T08:12:45.740Z,10.91
2023-05-03T08:15:13.955Z,11.01
2023-05-03T08:17:46.114Z,10.91
2023-05-03T08:20:15.796Z,11.05
2023-05-03T08:22:45.485Z,11.18
2023-05-03T08:25:13.728Z,11.37
2023-05-03T08:27:42.046Z,11.70
2023-05-03T08:30:10.815Z,11.67
2023-05-03T08:32:39.502Z,11.57
2023-05-03T08:35:10.680Z,11.62
2023-05-03T08:37:42.324Z,11.69
2023-05-03T08:40:12.212Z,11.84
2023-05-03T08:42:42.082Z,12.10
2023-05-03T08:45:13.390Z,12.01
2023-05-03T08:47:42.181Z,12.00
2023-05-03T08:50:13.659Z,12.10
2023-05-03T08:52:43.516Z,12.07
2023-05-03T08:55:12.636Z,12.28
2023-05-03T08:57:41.688Z,12.54
2023-05-03T09:00:13.321Z,12.59
2023-05-03T09:02:42.250Z,12.28
2023-05-03T09:05:35.555Z,12.76
2023-05-03T09:08:05.318Z,12.65
2023-05-03T09:10:35.641Z,12.73
2023-05-03T09:13:04.374Z,13.01
2023-05-03T09:15:32.853Z,13.08
2023-05-03T09:18:12.363Z,13.10
2023-05-03T09:20:51.788Z,13.38
2023-05-03T09:23:29.946Z,13.18
2023-05-03T09:25:59.551Z,13.25
2023-05-03T09:28:28.070Z,13.65
2023-05-03T09:31:07.293Z,13.33
2023-05-03T09:33:35.664Z,13.56
2023-05-03T09:36:06.690Z,13.61
2023-05-03T09:38:36.779Z,14.04
2023-05-03T09:41:06.416Z,14.03
2023-05-03T09:43:34.987Z,14.00
2023-05-03T09:46:10.756Z,13.91
2023-05-03T09:48:39.527Z,14.31
2023-05-03T09:51:10.329Z,14.83
2023-05-03T09:53:40.203Z,14.77
2023-05-03T09:56:12.673Z,14.86
2023-05-03T09:58:43.890Z,14.69
2023-05-03T10:01:12.315Z,14.71
2023-05-03T10:03:44.219Z,14.67
2023-05-03T10:06:26.749Z,14.77
2023-05-03T10:08:59.622Z,15.51
2023-05-03T10:11:29.415Z,15.57
2023-05-03T10:13:58.094Z,15.43
2023-05-03T10:16:31.695Z,15.39
2023-05-03T10:19:08.985Z,15.37
2023-05-03T10:21:55.658Z,15.63
2023-05-03T10:24:24.328Z,15.56
2023-05-03T10:26:53.413Z,15.61
2023-05-03T10:29:49.750Z,16.10
2023-05-03T10:32:39.791Z,16.40
2023-05-03T10:35:10.953Z,16.65
2023-05-03T10:37:42.693Z,16.68
2023-05-03T10:40:14.151Z,16.77
2023-05-03T10:42:45.624Z,16.59
2023-05-03T10:45:23.065Z,17.51
2023-05-03T10:48:20.962Z,17.41
2023-05-03T10:50:50.500Z,17.56
2023-05-03T10:53:50.910Z,17.56
2023-05-03T10:56:19.323Z,17.67
2023-05-03T10:58:50.862Z,17.76
2023-05-03T11:01:20.477Z,17.38
2023-05-03T11:03:53.568Z,17.41
2023-05-03T11:06:33.584Z,17.84
2023-05-03T11:09:06.129Z,17.99
2023-05-03T11:11:34.874Z,18.12
2023-05-03T11:14:03.458Z,17.68
2023-05-03T11:16:32.032Z,18.11
2023-05-03T11:19:01.195Z,17.63
2023-05-03T11:21:29.464Z,18.58
2023-05-03T11:24:00.553Z,18.67
2023-05-03T11:26:30.551Z,18.76
2023-05-03T11:28:58.800Z,18.78
2023-05-03T11:31:27.213Z,18.97
2023-05-03T11:33:55.473Z,19.37
2023-05-03T11:36:23.620Z,19.11
2023-05-03T11:38:51.966Z,19.13
2023-05-03T11:41:20.738Z,19.13
2023-05-03T11:44:00.798Z,19.08
2023-05-03T11:46:37.113Z,19.11
2023-05-03T11:49:05.590Z,18.80
2023-05-03T11:51:33.806Z,19.62
2023-05-03T11:54:16.985Z,19.31
2023-05-03T11:56:53.127Z,19.38
2023-05-03T11:59:36.051Z,19.53
2023-05-03T12:02:04.419Z,19.07
2023-05-03T12:04:33.537Z,19.09
2023-05-03T12:07:03.002Z,19.30
2023-05-03T12:09:32.485Z,19.23
2023-05-03T12:12:02.581Z,19.53
2023-05-03T12:14:57.816Z,19.82
2023-05-03T12:17:37.984Z,20.27
2023-05-03T12:22:57.914Z,20.02
2023-05-03T12:25:30.698Z,19.93
2023-05-03T12:28:18.005Z,20.75
2023-05-03T12:30:52.945Z,20.39
2023-05-03T12:33:23.171Z,20.87
2023-05-03T12:35:54.240Z,20.82
2023-05-03T12:38:24.316Z,20.87
2023-05-03T12:40:54.832Z,21.02
2023-05-03T12:43:23.252Z,20.73
2023-05-03T12:46:08.505Z,20.55
2023-05-03T12:48:44.129Z,20.56
2023-05-03T12:53:47.213Z,20.92
2023-05-03T12:56:17.465Z,21.09
2023-05-03T13:02:17.167Z,20.73
2023-05-03T13:06:45.241Z,21.00
2023-05-03T13:09:19.919Z,21.09
2023-05-03T13:11:50.286Z,21.68
2023-05-03T13:14:18.891Z,21.83
2023-05-03T13:16:49.361Z,21.55
2023-05-03T13:19:17.783Z,21.38
2023-05-03T13:21:48.685Z,21.45
2023-05-03T13:24:18.896Z,22.14
2023-05-03T13:26:47.366Z,21.67
2023-05-03T13:29:15.747Z,22.73
2023-05-03T13:31:43.949Z,22.44
2023-05-03T13:34:13.804Z,21.97
2023-05-03T13:36:41.957Z,22.47
2023-05-03T13:39:10.766Z,22.63
2023-05-03T13:41:42.361Z,22.07
2023-05-03T13:44:11.980Z,23.21
2023-05-03T13:46:41.495Z,23.07
2023-05-03T13:49:09.773Z,23.60
2023-05-03T13:51:39.783Z,23.50
2023-05-03T13:54:09.261Z,23.02
2023-05-03T13:56:38.133Z,22.96
2023-05-03T13:59:08.694Z,23.16
2023-05-03T14:01:36.968Z,22.88
2023-05-03T14:04:05.614Z,23.66
2023-05-03T14:06:34.371Z,23.43
2023-05-03T14:09:05.029Z,24.11
2023-05-03T14:11:33.393Z,24.28
2023-05-03T14:14:01.751Z,24.50
2023-05-03T14:19:01.292Z,23.85
2023-05-03T14:21:31.907Z,23.85
2023-05-03T14:24:00.230Z,24.42
2023-05-03T14:26:30.588Z,24.35
2023-05-03T14:29:00.652Z,23.56
2023-05-03T14:31:29.260Z,23.76
2023-05-03T14:33:57.481Z,23.68
2023-05-03T14:36:25.734Z,24.27
2023-05-03T14:38:53.864Z,24.32
2023-05-03T14:41:22.149Z,24.97
2023-05-03T14:43:51.760Z,24.58
2023-05-03T14:46:21.245Z,24.71
2023-05-03T14:48:49.961Z,24.98
2023-05-03T14:51:19.105Z,24.88
2023-05-03T14:53:47.434Z,24.51
2023-05-03T14:56:15.740Z,24.51
2023-05-03T14:58:44.139Z,24.12
2023-05-03T15:01:20.540Z,24.33
2023-05-03T15:03:49.833Z,24.34
2023-05-03T15:06:24.331Z,24.84
2023-05-03T15:08:52.673Z,24.47
2023-05-03T15:11:21.258Z,24.51
2023-05-03T15:13:49.463Z,23.86
2023-05-03T15:16:19.534Z,23.79
2023-05-03T15:18:49.734Z,23.27
2023-05-03T15:21:21.402Z,23.39
2023-05-03T15:23:49.886Z,23.57
2023-05-03T15:26:18.194Z,23.93
2023-05-03T15:28:46.247Z,24.18
2023-05-03T15:31:15.151Z,24.53
2023-05-03T15:33:46.260Z,24.13
2023-05-03T15:36:16.920Z,23.66
2023-05-03T15:38:45.663Z,23.76
2023-05-03T15:41:16.415Z,23.67
2023-05-03T15:43:46.765Z,23.81
2023-05-03T15:46:15.317Z,23.75
2023-05-03T15:48:45.483Z,23.85
2023-05-03T15:51:13.987Z,24.31
2023-05-03T15:53:42.691Z,23.63
2023-05-03T15:56:12.011Z,24.14
2023-05-03T15:58:42.534Z,24.00
2023-05-03T16:01:12.920Z,24.11
2023-05-03T16:03:48.691Z,24.85
2023-05-03T16:06:18.453Z,24.68
2023-05-03T16:08:47.086Z,24.22
2023-05-03T16:11:16.121Z,24.27
2023-05-03T16:13:45.559Z,23.96
2023-05-03T16:16:13.904Z,23.72
2023-05-03T16:18:41.991Z,23.43
2023-05-03T16:21:12.034Z,23.52
2023-05-03T16:23:40.984Z,22.97
2023-05-03T16:26:14.654Z,23.44
2023-05-03T16:28:43.439Z,23.90
2023-05-03T16:31:12.474Z,23.72
2023-05-03T16:33:41.018Z,23.80
2023-05-03T16:36:09.833Z,24.47
2023-05-03T16:38:40.268Z,24.48
2023-05-03T16:41:09.131Z,24.73
2023-05-03T16:43:38.275Z,24.56
2023-05-03T16:46:07.156Z,24.58
2023-05-03T16:48:36.764Z,24.48
2023-05-03T16:51:05.476Z,24.26
2023-05-03T16:53:34.571Z,24.77
2023-05-03T16:56:04.678Z,24.50
2023-05-03T16:58:40.229Z,24.74
2023-05-03T17:01:08.709Z,24.52
2023-05-03T17:03:37.285Z,24.70
2023-05-03T17:06:06.683Z,24.66
2023-05-03T17:08:34.954Z,24.59
2023-05-03T17:11:08.387Z,23.85
2023-05-03T17:13:36.578Z,23.92
2023-05-03T17:16:10.206Z,23.55
2023-05-03T17:18:40.611Z,24.06
2023-05-03T17:21:09.835Z,24.46
2023-05-03T17:23:39.742Z,23.90
2023-05-03T17:26:11.104Z,23.39
2023-05-03T17:28:39.301Z,23.10
2023-05-03T17:31:08.259Z,22.78
2023-05-03T17:33:37.988Z,22.50
2023-05-03T17:36:06.692Z,22.16
2023-05-03T17:38:36.376Z,22.18
2023-05-03T17:41:05.557Z,21.85
2023-05-03T17:43:35.837Z,21.38
2023-05-03T17:46:14.996Z,21.43
2023-05-03T17:48:44.403Z,21.28
2023-05-03T17:51:13.783Z,21.20
2023-05-03T17:53:43.362Z,21.17
2023-05-03T17:56:15.501Z,21.03
2023-05-03T17:58:46.727Z,20.81
2023-05-03T18:01:16.143Z,20.70
2023-05-03T18:03:44.814Z,20.55
2023-05-03T18:06:14.582Z,20.50
2023-05-03T18:08:43.020Z,20.55
2023-05-03T18:11:11.466Z,20.54
2023-05-03T18:13:40.340Z,20.40
2023-05-03T18:16:11.813Z,20.23
2023-05-03T18:18:40.262Z,20.24
2023-05-03T18:21:10.675Z,20.07
2023-05-03T18:23:39.084Z,19.90
2023-05-03T18:26:08.160Z,19.84
2023-05-03T18:28:37.784Z,19.72
2023-05-03T18:31:07.754Z,19.28
2023-05-03T18:33:40.128Z,19.14
2023-05-03T18:36:11.894Z,18.98
2023-05-03T18:38:40.422Z,18.76
2023-05-03T18:41:14.503Z,18.68
2023-05-03T18:43:43.471Z,18.57
2023-05-03T18:46:12.263Z,18.55
2023-05-03T18:48:41.798Z,18.39
2023-05-03T18:51:10.709Z,18.33
2023-05-03T18:53:38.810Z,18.35
2023-05-03T18:56:07.339Z,18.28
2023-05-03T18:58:35.670Z,18.12
2023-05-03T19:01:04.996Z,18.14
2023-05-03T19:03:33.556Z,17.83
2023-05-03T19:06:05.674Z,17.93
2023-05-03T19:08:33.921Z,17.78
2023-05-03T19:11:08.585Z,17.86
2023-05-03T19:13:37.823Z,17.56
2023-05-03T19:16:06.708Z,17.50
2023-05-03T19:18:37.292Z,17.28
2023-05-03T19:21:07.404Z,17.51
2023-05-03T19:23:35.778Z,17.31
2023-05-03T19:26:04.253Z,17.06
2023-05-03T19:28:32.848Z,16.86
2023-05-03T19:31:04.665Z,16.89
2023-05-03T19:33:33.236Z,16.76
2023-05-03T19:36:06.919Z,16.69
2023-05-03T19:38:37.136Z,16.35
2023-05-03T19:41:09.703Z,16.23
2023-05-03T19:43:38.027Z,15.93
2023-05-03T19:46:06.523Z,15.76
2023-05-03T19:48:35.162Z,15.64
2023-05-03T19:51:05.503Z,15.70
2023-05-03T19:53:35.336Z,15.57
2023-05-03T19:56:05.350Z,15.62
2023-05-03T19:58:33.704Z,15.61
2023-05-03T20:01:02.038Z,15.56
2023-05-03T20:03:30.380Z,15.43
2023-05-03T20:05:58.811Z,15.22
2023-05-03T20:08:27.444Z,14.79
2023-05-03T20:10:56.956Z,14.85
2023-05-03T20:13:27.875Z,14.69
2023-05-03T20:15:56.429Z,14.52
2023-05-03T20:18:24.911Z,14.43
2023-05-03T20:20:53.352Z,14.29
2023-05-03T20:23:22.456Z,14.31
2023-05-03T20:25:50.901Z,14.36
2023-05-03T20:28:19.586Z,14.29
2023-05-03T20:30:49.698Z,14.36
2023-05-03T20:33:17.897Z,14.26
2023-05-03T20:35:46.673Z,14.32
2023-05-03T20:38:15.375Z,14.33
2023-05-03T20:40:45.151Z,14.32
2023-05-03T20:43:13.549Z,14.29
2023-05-03T20:45:43.678Z,14.25
2023-05-03T20:48:13.759Z,14.28
2023-05-03T20:50:41.771Z,14.22
2023-05-03T20:53:10.457Z,14.20
2023-05-03T20:55:41.637Z,14.07
2023-05-03T20:58:10.052Z,14.01
2023-05-03T21:00:38.982Z,13.98
2023-05-03T21:03:07.616Z,13.91
2023-05-03T21:05:37.721Z,14.05
2023-05-03T21:08:06.247Z,13.97
2023-05-03T21:10:34.517Z,13.94
2023-05-03T21:13:03.710Z,13.79
2023-05-03T21:15:32.326Z,13.84
2023-05-03T21:18:06.407Z,13.82
2023-05-03T21:20:34.961Z,13.78
2023-05-03T21:23:05.933Z,13.54
2023-05-03T21:25:34.350Z,13.50
2023-05-03T21:28:02.851Z,13.64
2023-05-03T21:30:31.077Z,13.66
2023-05-03T21:32:59.198Z,13.64
2023-05-03T21:35:30.617Z,13.65
2023-05-03T21:37:59.258Z,13.55
2023-05-03T21:40:29.583Z,13.60
2023-05-03T21:42:58.024Z,13.59
2023-05-03T21:45:26.379Z,13.69
2023-05-03T21:47:54.673Z,13.38
2023-05-03T21:50:23.790Z,13.39
2023-05-03T21:52:52.303Z,13.21
2023-05-03T21:55:21.026Z,12.97
2023-05-03T21:57:51.684Z,12.98
2023-05-03T22:00:21.013Z,12.90
2023-05-03T22:02:50.028Z,12.60
2023-05-03T22:05:18.630Z,12.48
2023-05-03T22:07:48.699Z,12.44
2023-05-03T22:10:17.361Z,12.43
2023-05-03T22:12:45.561Z,12.28
2023-05-03T22:15:15.516Z,12.17
2023-05-03T22:17:43.850Z,12.07
2023-05-03T22:20:12.976Z,12.09
2023-05-03T22:22:41.940Z,11.91
2023-05-03T22:25:13.003Z,11.91
2023-05-03T22:27:41.381Z,11.80
2023-05-03T22:30:10.550Z,11.67
2023-05-03T22:32:40.310Z,11.59
2023-05-03T22:35:09.496Z,11.70
2023-05-03T22:37:37.999Z,11.59
2023-05-03T22:40:09.353Z,11.59
2023-05-03T22:42:38.195Z,11.50
2023-05-03T22:45:07.251Z,11.46
2023-05-03T22:47:35.915Z,11.48
2023-05-03T22:50:07.750Z,11.44
2023-05-03T22:52:35.832Z,11.43
2023-05-03T22:55:04.249Z,11.39
2023-05-03T22:57:32.483Z,11.34
2023-05-03T23:00:01.005Z,11.33
2023-05-03T23:02:29.540Z,11.29
2023-05-03T23:04:57.851Z,11.14
2023-05-03T23:07:28.446Z,11.12
2023-05-03T23:10:03.063Z,11.05
2023-05-03T23:12:31.740Z,11.09
2023-05-03T23:14:59.991Z,11.09
2023-05-03T23:17:28.730Z,11.09
2023-05-03T23:19:57.116Z,11.19
2023-05-03T23:22:26.687Z,11.24
2023-05-03T23:24:54.761Z,11.27
2023-05-03T23:27:23.135Z,11.24
2023-05-03T23:29:52.648Z,11.30
2023-05-03T23:32:21.978Z,11.40
2023-05-03T23:34:51.023Z,11.40
2023-05-03T23:37:19.686Z,11.40
2023-05-03T23:39:49.488Z,11.21
2023-05-03T23:42:18.115Z,11.28
2023-05-03T23:44:53.638Z,11.35
2023-05-03T23:47:26.179Z,11.15
2023-05-03T23:49:54.621Z,10.95
2023-05-03T23:52:22.860Z,10.90
2023-05-03T23:54:53.637Z,10.78
2023-05-03T23:57:23.372Z,10.68
2023-05-03T23:59:51.827Z,10.53
